Sevastopol, Wisconsin
Current Conditions -  °F | °C
As of 7:35 AM on Friday 24 Oct 2014 (Local Time) from KSUE Reporting Station
Overcast Overcast  
Wind Chill: 46°   Ceiling: 500
Heat Index: 48°   Visibility: 4mi
Dew Point: 45°   Wind: 5mph
Humidity: 87%   Direction: 230°SW
Pressure: 30.01"   Gusts: NA
Location:  44.7888°N, 87.4464°W
Report Text: KSUE 241235Z AUTO 23004KT 4SM OVC005 09/07 A3001 RMK AO1
Loading
Personal Weather Stations






























Interactive Weather Map
Tropical Storm Tracking
New forecast layout! Learn more

10-Day Weather Forecast

Advertisements
Track Severe Weather on mobile